Time;durP1;ratioP1;P1;durP2;ratioP2;P2;SDS_P1;SDS_P2;PMS_P1;PMS_P2;Temp;Humidity;BMP_temperature;BMP_pressure;BME280_temperature;BME280_humidity;BME280_pressure;Samples;Min_cycle;Max_cycle;Signal;HPM_P1;HPM_P2
2023/06/02 00:01:32;;;;;;;7.33;5.60;;;13.50;1.00;;;;;;5014921;28;20402;-79
2023/06/02 00:04:04;;;;;;;8.13;5.70;;;13.50;1.00;;;;;;5011938;28;20498;-79
2023/06/02 00:06:37;;;;;;;11.03;6.20;;;13.40;1.00;;;;;;5014686;28;20177;-79
2023/06/02 00:09:04;;;;;;;13.10;5.43;;;13.40;1.00;;;;;;4997816;28;20868;-80
2023/06/02 00:11:36;;;;;;;11.07;6.23;;;13.30;1.00;;;;;;5015360;28;20386;-79
2023/06/02 00:14:04;;;;;;;8.30;5.37;;;13.30;1.00;;;;;;5015851;28;20442;-79
2023/06/02 00:16:44;;;;;;;7.60;5.60;;;13.30;1.00;;;;;;5015102;28;20546;-79
2023/06/02 00:19:13;;;;;;;7.23;5.20;;;13.30;1.00;;;;;;5015495;28;20913;-79
2023/06/02 00:22:18;;;;;;;9.40;5.83;;;13.30;1.00;;;;;;5009651;28;20433;-80
2023/06/02 00:24:54;;;;;;;10.47;5.53;;;13.20;1.00;;;;;;5011628;28;20941;-79
2023/06/02 00:27:54;;;;;;;8.40;5.33;;;13.20;1.00;;;;;;5007264;28;20760;-79
2023/06/02 00:30:36;;;;;;;10.20;6.10;;;13.20;1.00;;;;;;5013033;28;20387;-79
2023/06/02 00:33:12;;;;;;;8.47;6.13;;;13.20;1.00;;;;;;5002005;28;20435;-79
2023/06/02 00:36:00;;;;;;;9.03;5.97;;;13.10;1.00;;;;;;5014798;28;20424;-79
2023/06/02 00:42:06;;;;;;;6.97;5.17;;;13.10;1.00;;;;;;5014571;28;20462;-80
2023/06/02 00:44:32;;;;;;;9.53;6.57;;;13.10;1.00;;;;;;5003800;28;20404;-75
2023/06/02 00:47:08;;;;;;;16.50;6.30;;;13.10;1.00;;;;;;5014966;28;20392;-75
2023/06/02 00:49:33;;;;;;;8.07;5.10;;;13.10;1.00;;;;;;5013219;28;20216;-75
2023/06/02 00:52:06;;;;;;;7.40;5.33;;;13.00;1.00;;;;;;5015051;28;20803;-75
2023/06/02 00:54:32;;;;;;;11.13;5.90;;;13.00;1.00;;;;;;5014956;28;20252;-75
2023/06/02 00:57:01;;;;;;;7.80;5.70;;;13.00;1.00;;;;;;5011754;28;20966;-75
2023/06/02 00:59:48;;;;;;;6.67;5.13;;;13.00;1.00;;;;;;5011953;28;20235;-79
2023/06/02 01:03:07;;;;;;;7.10;4.80;;;12.90;1.00;;;;;;5013708;28;20739;-79
2023/06/02 01:05:37;;;;;;;7.40;5.47;;;12.90;1.00;;;;;;5014318;28;20391;-79
2023/06/02 01:08:07;;;;;;;9.27;5.20;;;12.90;1.00;;;;;;5014021;28;20455;-79
2023/06/02 01:10:37;;;;;;;8.20;5.50;;;12.90;1.00;;;;;;5002466;28;20450;-79
2023/06/02 01:13:24;;;;;;;6.83;5.50;;;12.90;1.00;;;;;;5009317;28;20455;-80
2023/06/02 01:15:50;;;;;;;8.87;5.60;;;12.90;1.00;;;;;;5014025;28;20422;-75
2023/06/02 01:18:25;;;;;;;7.63;5.20;;;12.90;1.00;;;;;;5013348;28;20414;-75
2023/06/02 01:20:57;;;;;;;10.13;5.80;;;12.80;1.00;;;;;;5009795;28;20461;-75
2023/06/02 01:23:32;;;;;;;8.07;5.50;;;12.80;1.00;;;;;;5012447;28;20406;-75
2023/06/02 01:26:00;;;;;;;6.83;5.20;;;12.70;1.00;;;;;;4984941;28;20836;-75
2023/06/02 01:28:27;;;;;;;12.37;6.03;;;12.70;1.00;;;;;;5014006;28;20521;-74
2023/06/02 01:31:06;;;;;;;9.23;6.40;;;12.70;1.00;;;;;;5014283;28;20402;-75
2023/06/02 01:33:52;;;;;;;10.27;5.80;;;12.70;1.00;;;;;;5014385;28;20408;-74
2023/06/02 01:36:21;;;;;;;9.60;5.93;;;12.70;1.00;;;;;;5012525;28;20406;-75
2023/06/02 01:38:57;;;;;;;10.53;5.67;;;12.60;1.00;;;;;;4996441;28;20735;-75
2023/06/02 01:41:25;;;;;;;7.80;5.57;;;12.60;1.00;;;;;;4995440;28;20443;-75
2023/06/02 01:43:52;;;;;;;11.10;6.00;;;12.60;1.00;;;;;;5014239;28;20401;-75
2023/06/02 01:46:18;;;;;;;7.30;5.60;;;12.60;1.00;;;;;;5013918;28;20474;-75
2023/06/02 01:48:44;;;;;;;7.23;5.50;;;12.60;1.00;;;;;;5013175;28;20430;-75
2023/06/02 01:51:12;;;;;;;11.03;4.90;;;12.50;1.00;;;;;;5014021;28;20405;-75
2023/06/02 01:53:42;;;;;;;6.43;4.93;;;12.90;1.00;;;;;;5013885;28;20938;-75
2023/06/02 01:56:08;;;;;;;17.30;6.10;;;12.50;1.00;;;;;;4994369;28;20402;-75
2023/06/02 01:58:36;;;;;;;16.77;6.63;;;12.50;1.00;;;;;;5009951;28;20952;-75
2023/06/02 02:01:02;;;;;;;10.43;5.60;;;12.50;1.00;;;;;;5001948;28;20181;-75
2023/06/02 02:03:32;;;;;;;13.20;6.53;;;12.40;1.00;;;;;;5013992;28;20507;-75
2023/06/02 02:06:02;;;;;;;8.50;5.10;;;12.40;1.00;;;;;;5014112;28;20211;-75
2023/06/02 02:08:28;;;;;;;6.60;4.50;;;12.40;1.00;;;;;;5013446;28;20508;-75
2023/06/02 02:10:54;;;;;;;12.53;5.70;;;12.30;1.00;;;;;;5013820;28;20386;-75
2023/06/02 02:13:20;;;;;;;8.90;5.43;;;12.30;1.00;;;;;;5013886;28;20176;-75
2023/06/02 02:15:54;;;;;;;8.43;5.80;;;12.30;1.00;;;;;;5013470;28;20466;-79
2023/06/02 02:18:30;;;;;;;8.07;5.90;;;12.20;1.00;;;;;;5013459;28;20176;-80
2023/06/02 02:21:06;;;;;;;6.60;5.10;;;12.20;1.00;;;;;;5007332;28;20436;-80
2023/06/02 02:23:32;;;;;;;8.20;5.37;;;12.10;1.00;;;;;;5008229;28;20401;-79
2023/06/02 02:26:06;;;;;;;9.60;5.70;;;12.10;1.00;;;;;;5013235;28;20456;-80
2023/06/02 02:28:37;;;;;;;10.47;5.70;;;12.10;1.00;;;;;;5012991;28;20279;-79
2023/06/02 02:31:04;;;;;;;9.30;5.13;;;12.10;1.00;;;;;;5013292;28;20494;-75
2023/06/02 02:33:30;;;;;;;9.73;5.77;;;12.00;1.00;;;;;;5013349;28;20435;-75
2023/06/02 02:35:56;;;;;;;12.20;5.47;;;12.00;1.00;;;;;;5012636;28;20490;-75
2023/06/02 02:38:22;;;;;;;8.53;5.30;;;12.00;1.00;;;;;;5013040;28;20493;-75
2023/06/02 02:40:54;;;;;;;12.43;6.10;;;12.00;1.00;;;;;;5013446;28;20482;-75
2023/06/02 02:43:30;;;;;;;15.03;5.93;;;12.00;1.00;;;;;;5013363;28;20905;-82
2023/06/02 02:46:06;;;;;;;18.03;5.93;;;11.90;1.00;;;;;;4996305;28;20433;-87
2023/06/02 02:49:06;;;;;;;16.63;5.77;;;11.90;1.00;;;;;;4997818;28;20434;-87
2023/06/02 02:55:06;;;;;;;9.60;5.77;;;11.90;1.00;;;;;;5016647;28;20399;-87
2023/06/02 02:57:37;;;;;;;12.03;7.30;;;11.90;1.00;;;;;;4992333;28;20394;-87
2023/06/02 03:00:10;;;;;;;9.83;6.10;;;12.00;1.00;;;;;;5006313;28;20821;-86
2023/06/02 03:02:42;;;;;;;12.60;6.53;;;11.90;1.00;;;;;;5013939;28;20456;-82
2023/06/02 03:05:49;;;;;;;12.30;6.10;;;11.90;1.00;;;;;;5014125;28;20449;-82
2023/06/02 03:08:25;;;;;;;12.63;6.10;;;11.90;1.00;;;;;;5006962;28;20453;-81
2023/06/02 03:11:06;;;;;;;11.13;6.30;;;11.90;1.00;;;;;;5016500;28;20386;-81
2023/06/02 03:13:32;;;;;;;15.40;6.50;;;11.90;1.00;;;;;;5009465;28;20435;-81
2023/06/02 03:16:06;;;;;;;17.43;6.17;;;11.90;1.00;;;;;;4998334;28;20414;-82
2023/06/02 03:19:06;;;;;;;13.40;5.97;;;11.90;1.00;;;;;;5016547;28;20210;-82
2023/06/02 03:22:18;;;;;;;16.40;6.17;;;11.90;1.00;;;;;;5012892;28;20402;-82
2023/06/02 03:25:06;;;;;;;12.57;5.93;;;11.90;1.00;;;;;;4992478;28;21022;-82
2023/06/02 03:27:36;;;;;;;9.30;5.33;;;11.90;1.00;;;;;;5014320;28;20412;-82
2023/06/02 03:30:07;;;;;;;18.50;6.40;;;11.90;1.00;;;;;;5015693;28;20972;-82
2023/06/02 03:32:36;;;;;;;12.70;6.00;;;11.90;1.00;;;;;;4999273;28;20491;-82
2023/06/02 03:35:12;;;;;;;13.57;5.70;;;11.80;1.00;;;;;;5015639;28;20407;-82
2023/06/02 03:38:06;;;;;;;13.80;5.23;;;11.80;1.00;;;;;;5016198;28;20414;-82
2023/06/02 03:40:36;;;;;;;11.77;6.80;;;11.80;1.00;;;;;;5013452;28;20525;-82
2023/06/02 03:43:06;;;;;;;20.00;6.03;;;11.80;1.00;;;;;;5016111;28;20426;-82
2023/06/02 03:45:39;;;;;;;18.40;5.90;;;11.80;1.00;;;;;;5014665;28;21012;-83
2023/06/02 03:48:07;;;;;;;12.63;6.57;;;15.00;1.00;;;;;;4999303;28;20382;-87
2023/06/02 03:50:38;;;;;;;10.80;6.07;;;11.80;1.00;;;;;;4998596;28;20445;-88
2023/06/02 03:53:06;;;;;;;12.70;6.13;;;11.90;1.00;;;;;;4999081;28;20398;-88
2023/06/02 03:55:36;;;;;;;18.93;5.77;;;11.90;1.00;;;;;;4998119;28;20394;-88
2023/06/02 03:58:06;;;;;;;12.50;6.40;;;11.90;1.00;;;;;;4990917;28;20425;-88
2023/06/02 04:00:36;;;;;;;14.57;6.00;;;11.90;1.00;;;;;;5007687;28;20489;-87
2023/06/02 04:03:19;;;;;;;19.10;7.10;;;11.90;1.00;;;;;;4998011;28;20398;-82
2023/06/02 04:06:37;;;;;;;14.40;6.50;;;12.00;1.00;;;;;;5014152;28;20410;-82
2023/06/02 04:12:31;;;;;;;11.00;5.70;;;12.00;1.00;;;;;;5015548;28;20369;-83
2023/06/02 04:15:18;;;;;;;9.10;5.37;;;12.10;1.00;;;;;;5010535;28;20434;-82
2023/06/02 04:17:48;;;;;;;7.77;5.30;;;12.00;1.00;;;;;;5013433;28;20220;-82
2023/06/02 04:20:25;;;;;;;9.90;5.90;;;12.10;1.00;;;;;;5015200;28;20943;-83
2023/06/02 04:23:06;;;;;;;10.77;6.10;;;12.10;1.00;;;;;;5009132;28;20398;-82
2023/06/02 04:25:54;;;;;;;11.30;5.77;;;12.20;1.00;;;;;;4994516;28;20536;-83
2023/06/02 04:28:30;;;;;;;20.43;6.63;;;12.20;1.00;;;;;;4990584;28;20426;-83
2023/06/02 04:34:18;;;;;;;11.90;5.57;;;12.20;1.00;;;;;;5009922;28;20406;-82
2023/06/02 04:36:48;;;;;;;13.50;6.13;;;12.30;1.00;;;;;;5013386;28;20419;-82
2023/06/02 04:46:01;;;;;;;14.63;6.13;;;12.40;1.00;;;;;;5007196;28;20422;-82
2023/06/02 04:48:40;;;;;;;11.77;5.80;;;12.40;1.00;;;;;;4995863;28;20434;-82
2023/06/02 04:55:06;;;;;;;11.03;5.73;;;12.50;1.00;;;;;;5008734;28;20430;-82
2023/06/02 05:01:42;;;;;;;14.00;6.40;;;12.70;1.00;;;;;;5010231;28;20493;-83
2023/06/02 05:04:25;;;;;;;11.00;6.57;;;12.90;1.00;;;;;;5011070;28;20459;-83
2023/06/02 05:10:12;;;;;;;22.33;5.97;;;13.10;1.00;;;;;;5004208;28;20878;-82
2023/06/02 05:13:27;;;;;;;11.37;4.90;;;13.30;1.00;;;;;;5013870;28;20403;-82
2023/06/02 05:16:02;;;;;;;9.60;5.63;;;13.40;1.00;;;;;;4996576;28;20223;-83
2023/06/02 05:18:54;;;;;;;13.43;5.23;;;13.50;1.00;;;;;;5004288;28;20410;-87
2023/06/02 05:21:48;;;;;;;16.27;5.30;;;13.70;1.00;;;;;;4978231;28;20379;-87
2023/06/02 05:27:55;;;;;;;9.70;5.83;;;13.70;1.00;;;;;;5014430;28;20458;-87
2023/06/02 05:31:06;;;;;;;11.63;5.47;;;13.80;1.00;;;;;;4992467;28;20850;-85
2023/06/02 05:34:06;;;;;;;14.70;5.60;;;14.00;1.00;;;;;;4997038;28;20426;-84
2023/06/02 05:36:48;;;;;;;11.70;5.57;;;14.00;1.00;;;;;;4995704;28;20807;-84
2023/06/02 05:39:19;;;;;;;12.73;5.80;;;14.20;1.00;;;;;;4988417;28;20407;-84
2023/06/02 05:42:36;;;;;;;13.47;5.67;;;14.30;1.00;;;;;;4985814;28;20775;-84
2023/06/02 05:45:05;;;;;;;9.10;4.57;;;14.40;1.00;;;;;;5009861;28;20847;-86
2023/06/02 05:47:36;;;;;;;11.33;5.10;;;14.50;1.00;;;;;;5012370;28;20855;-83
2023/06/02 05:50:07;;;;;;;16.60;5.83;;;14.70;1.00;;;;;;4990296;28;20532;-82
2023/06/02 05:52:33;;;;;;;17.30;6.40;;;14.80;1.00;;;;;;4996091;28;20437;-82
2023/06/02 05:55:07;;;;;;;11.03;5.00;;;14.90;1.00;;;;;;4995995;28;20399;-81
2023/06/02 05:57:37;;;;;;;11.27;5.60;;;14.90;1.00;;;;;;4992930;28;20185;-81
2023/06/02 06:00:07;;;;;;;10.10;4.90;;;15.00;1.00;;;;;;4996048;28;20445;-82
2023/06/02 06:02:36;;;;;;;13.03;5.70;;;15.10;1.00;;;;;;4996128;28;20942;-83
2023/06/02 06:05:36;;;;;;;9.70;5.20;;;15.20;1.00;;;;;;5005748;28;20440;-83
2023/06/02 06:08:02;;;;;;;10.40;6.10;;;15.40;1.00;;;;;;4994541;28;20439;-81
2023/06/02 06:10:28;;;;;;;6.30;4.43;;;15.60;1.00;;;;;;5006466;28;20402;-81
2023/06/02 06:13:07;;;;;;;10.43;5.90;;;15.80;1.00;;;;;;5009654;28;20834;-81
2023/06/02 06:15:56;;;;;;;7.23;4.67;;;16.00;1.00;;;;;;4978332;28;20200;-81
2023/06/02 06:18:55;;;;;;;7.60;5.07;;;16.00;1.00;;;;;;5012911;28;21235;-81
2023/06/02 06:21:24;;;;;;;8.57;4.80;;;16.10;1.00;;;;;;4991329;28;21000;-81
2023/06/02 06:23:54;;;;;;;8.70;5.40;;;16.20;1.00;;;;;;5000604;28;20458;-81
2023/06/02 06:26:24;;;;;;;15.60;6.10;;;16.00;1.00;;;;;;4997201;28;20958;-81
2023/06/02 06:28:54;;;;;;;9.00;4.80;;;15.90;1.00;;;;;;4996519;28;20829;-82
2023/06/02 06:31:32;;;;;;;10.90;4.90;;;15.90;1.00;;;;;;4997647;28;20458;-81
2023/06/02 06:34:08;;;;;;;8.20;4.50;;;15.80;1.00;;;;;;5017049;28;20420;-86
2023/06/02 06:36:38;;;;;;;17.83;5.50;;;15.70;1.00;;;;;;5000327;28;20408;-86
2023/06/02 06:42:25;;;;;;;13.73;5.70;;;15.50;1.00;;;;;;5011299;28;20397;-86
2023/06/02 06:45:07;;;;;;;10.73;5.27;;;15.40;1.00;;;;;;5000268;28;20477;-86
2023/06/02 06:47:58;;;;;;;9.70;5.10;;;15.30;1.00;;;;;;4991849;28;20177;-86
2023/06/02 06:50:25;;;;;;;10.63;4.73;;;15.20;1.00;;;;;;4992015;28;20410;-81
2023/06/02 06:52:54;;;;;;;13.93;5.47;;;15.30;1.00;;;;;;4999229;28;20423;-81
2023/06/02 06:55:25;;;;;;;12.07;5.20;;;15.40;1.00;;;;;;5016434;28;20435;-81
2023/06/02 06:57:55;;;;;;;9.03;4.43;;;15.50;1.00;;;;;;5016549;28;20449;-82
2023/06/02 07:00:21;;;;;;;82.33;8.00;;;15.60;1.00;;;;;;5004353;28;20435;-81
2023/06/02 07:02:55;;;;;;;11.60;5.50;;;15.60;1.00;;;;;;4995451;28;20527;-81
2023/06/02 07:05:35;;;;;;;14.53;6.00;;;;;;;;;;4988780;28;20430;-86
2023/06/02 07:08:07;;;;;;;10.97;4.87;;;;;;;;;;4993627;28;20950;-87
2023/06/02 07:10:33;;;;;;;14.80;5.00;;;16.00;1.00;;;;;;4998202;28;20978;-87
2023/06/02 07:12:59;;;;;;;13.50;4.80;;;;;;;;;;5009773;28;20395;-86
2023/06/02 07:15:25;;;;;;;12.73;5.47;;;;;;;;;;4998805;28;20443;-87
2023/06/02 07:18:01;;;;;;;14.33;5.50;;;;;;;;;;4996760;28;20435;-88
2023/06/02 07:20:27;;;;;;;11.90;5.23;;;;;;;;;;4997404;28;20419;-83
2023/06/02 07:23:36;;;;;;;147.80;57.67;;;16.10;1.00;;;;;;4998533;28;20424;-83
2023/06/02 07:26:02;;;;;;;7.70;5.00;;;16.10;1.00;;;;;;4988450;28;20421;-83
2023/06/02 07:28:30;;;;;;;7.40;4.73;;;16.20;1.00;;;;;;5014814;28;20475;-82
2023/06/02 07:31:00;;;;;;;8.20;4.70;;;16.40;1.00;;;;;;5007836;28;20291;-81
2023/06/02 07:36:55;;;;;;;6.13;4.47;;;16.50;1.00;;;;;;5016494;28;20459;-85
2023/06/02 07:39:20;;;;;;;11.03;5.10;;;16.60;1.00;;;;;;4998258;28;20502;-85
2023/06/02 07:45:13;;;;;;;7.80;4.17;;;16.80;1.00;;;;;;5016148;28;20304;-85
2023/06/02 07:51:18;;;;;;;6.73;4.37;;;17.10;1.00;;;;;;5004550;28;20444;-85
2023/06/02 07:54:18;;;;;;;12.60;4.70;;;17.20;1.00;;;;;;4992301;28;20944;-84
2023/06/02 07:57:06;;;;;;;14.97;4.77;;;17.20;1.00;;;;;;4994714;28;20500;-84
2023/06/02 07:59:37;;;;;;;15.33;4.80;;;17.40;1.00;;;;;;4998254;28;20424;-87
2023/06/02 08:02:06;;;;;;;13.00;5.13;;;17.50;1.00;;;;;;4997890;28;20415;-85
2023/06/02 08:04:36;;;;;;;13.87;4.93;;;17.60;1.00;;;;;;4996980;28;20441;-83
2023/06/02 08:07:36;;;;;;;7.43;4.40;;;17.50;1.00;;;;;;4995775;28;20790;-85
2023/06/02 08:13:25;;;;;;;5.70;4.53;;;17.30;1.00;;;;;;5009391;28;20402;-85
2023/06/02 08:29:20;;;;;;;8.67;4.63;;;17.60;1.00;;;;;;5008266;28;20469;-84
2023/06/02 08:31:55;;;;;;;13.27;4.60;;;17.60;1.00;;;;;;4994041;28;20443;-85
2023/06/02 08:34:47;;;;;;;8.53;4.70;;;17.60;1.00;;;;;;4979125;28;20398;-82
2023/06/02 08:37:38;;;;;;;6.23;4.53;;;17.70;1.00;;;;;;4980855;28;20431;-81
2023/06/02 08:40:23;;;;;;;5.83;4.33;;;17.80;1.00;;;;;;4984751;28;20477;-81
2023/06/02 08:42:50;;;;;;;8.63;4.67;;;17.70;1.00;;;;;;4992556;28;20443;-81
2023/06/02 08:45:31;;;;;;;7.83;4.10;;;17.80;1.00;;;;;;5013179;28;20463;-81
2023/06/02 08:48:12;;;;;;;690.07;229.83;;;17.70;1.00;;;;;;5011301;28;20953;-81
2023/06/02 08:50:54;;;;;;;227.60;74.30;;;17.70;1.00;;;;;;5013196;28;20959;-81
2023/06/02 08:53:33;;;;;;;10.80;4.47;;;17.60;1.00;;;;;;4997300;28;20780;-84
2023/06/02 08:56:24;;;;;;;12.80;4.23;;;17.60;1.00;;;;;;5006698;28;20533;-82
2023/06/02 09:02:19;;;;;;;6.87;3.83;;;17.80;1.00;;;;;;5014116;28;20830;-83
2023/06/02 09:09:03;;;;;;;9.30;4.47;;;17.90;1.00;;;;;;5011608;28;20771;-85
2023/06/02 09:18:14;;;;;;;6.53;4.10;;;18.10;1.00;;;;;;5005990;28;20465;-86
2023/06/02 09:24:02;;;;;;;8.57;4.23;;;18.30;1.00;;;;;;5014552;28;20957;-88
2023/06/02 09:26:37;;;;;;;6.00;4.00;;;18.50;1.00;;;;;;5014497;28;20431;-88
2023/06/02 09:35:48;;;;;;;6.00;3.70;;;18.80;1.00;;;;;;5002212;28;20542;-82
2023/06/02 09:38:20;;;;;;;6.30;4.03;;;19.00;1.00;;;;;;4993317;28;20431;-82
2023/06/02 09:41:15;;;;;;;9.43;3.77;;;19.00;1.00;;;;;;5002870;28;20438;-82
2023/06/02 09:43:41;;;;;;;9.23;3.70;;;19.10;1.00;;;;;;5001455;28;20421;-82
2023/06/02 09:46:14;;;;;;;4.90;3.20;;;19.20;1.00;;;;;;4992579;28;20427;-82
2023/06/02 09:48:55;;;;;;;15.13;4.37;;;19.20;1.00;;;;;;5013754;28;20486;-82
2023/06/02 09:52:09;;;;;;;10.83;3.70;;;19.20;1.00;;;;;;5009538;28;20777;-82
2023/06/02 09:55:19;;;;;;;9.20;3.67;;;19.20;1.00;;;;;;4984423;28;20481;-83
2023/06/02 09:58:13;;;;;;;7.63;3.80;;;19.30;1.00;;;;;;5010797;28;20934;-81
2023/06/02 10:00:55;;;;;;;6.73;3.37;;;19.40;1.00;;;;;;5006677;28;20458;-82
2023/06/02 10:03:43;;;;;;;5.60;3.07;;;19.40;1.00;;;;;;4986752;28;20436;-82
2023/06/02 10:06:46;;;;;;;8.33;4.00;;;19.30;1.00;;;;;;4987459;28;20429;-79
2023/06/02 10:09:59;;;;;;;4.43;3.40;;;19.50;1.00;;;;;;5012110;28;20547;-81
2023/06/02 10:13:07;;;;;;;9.17;3.90;;;19.60;1.00;;;;;;4994031;28;20992;-81
2023/06/02 10:15:55;;;;;;;6.70;3.63;;;19.70;1.00;;;;;;4984359;28;20453;-82
2023/06/02 10:18:55;;;;;;;6.50;3.60;;;19.80;1.00;;;;;;5010976;28;20379;-80
2023/06/02 10:21:39;;;;;;;9.10;4.10;;;19.90;1.00;;;;;;4985015;28;20481;-87
2023/06/02 10:24:13;;;;;;;9.67;3.53;;;19.90;1.00;;;;;;5012769;28;20429;-87
2023/06/02 10:27:19;;;;;;;9.67;3.70;;;20.00;1.00;;;;;;5007774;28;20479;-87
2023/06/02 10:30:07;;;;;;;6.70;3.33;;;20.10;1.00;;;;;;5013519;28;20436;-84
2023/06/02 10:36:07;;;;;;;7.03;3.50;;;20.30;1.00;;;;;;5012890;28;20460;-80
2023/06/02 10:38:46;;;;;;;9.83;3.77;;;20.30;1.00;;;;;;4994549;28;20479;-81
2023/06/02 10:44:43;;;;;;;9.10;4.17;;;20.30;1.00;;;;;;5012990;28;20436;-82
2023/06/02 10:47:18;;;;;;;6.87;3.63;;;20.20;1.00;;;;;;4995792;28;20431;-80
2023/06/02 10:49:58;;;;;;;12.00;3.97;;;20.30;1.00;;;;;;5013255;28;20451;-81
2023/06/02 10:52:34;;;;;;;8.30;3.63;;;20.40;1.00;;;;;;5012034;28;20457;-79
2023/06/02 11:01:53;;;;;;;4.00;3.20;;;20.70;1.00;;;;;;5009468;28;20423;-82
2023/06/02 11:04:31;;;;;;;7.13;3.57;;;21.00;1.00;;;;;;5010496;28;20425;-83
2023/06/02 11:07:25;;;;;;;5.70;3.20;;;20.80;1.00;;;;;;5013329;28;20749;-87
2023/06/02 11:10:39;;;;;;;8.13;3.50;;;20.80;1.00;;;;;;5005807;28;20465;-86
2023/06/02 11:13:21;;;;;;;6.30;3.50;;;20.90;1.00;;;;;;4922241;29;20445;-86
2023/06/02 11:16:19;;;;;;;6.70;3.80;;;21.00;1.00;;;;;;4917114;29;20467;-81
2023/06/02 11:19:39;;;;;;;8.50;2.93;;;21.00;1.00;;;;;;4935380;29;20437;-82
2023/06/02 11:22:05;;;;;;;5.23;2.97;;;21.10;1.00;;;;;;4935209;29;21402;-81
2023/06/02 11:24:31;;;;;;;13.77;4.03;;;21.40;1.00;;;;;;4936443;29;20439;-81
2023/06/02 11:27:19;;;;;;;9.90;3.90;;;21.50;1.00;;;;;;4937046;29;20191;-82
2023/06/02 11:29:45;;;;;;;5.73;3.33;;;21.60;1.00;;;;;;4936144;29;20469;-80
2023/06/02 11:32:14;;;;;;;12.80;4.03;;;21.70;1.00;;;;;;4931860;29;20508;-82
2023/06/02 11:34:49;;;;;;;13.70;4.93;;;21.80;1.00;;;;;;4926806;29;20437;-81
2023/06/02 11:37:20;;;;;;;6.50;3.60;;;21.90;1.00;;;;;;4934648;29;20443;-88
2023/06/02 11:40:19;;;;;;;11.83;3.83;;;21.80;1.00;;;;;;4908956;29;20458;-86
2023/06/02 11:43:07;;;;;;;5.27;3.40;;;21.90;1.00;;;;;;4931561;29;20468;-86
2023/06/02 11:45:50;;;;;;;7.87;3.57;;;21.90;1.00;;;;;;4922113;29;20541;-86
2023/06/02 11:48:25;;;;;;;7.00;3.40;;;21.90;1.00;;;;;;4921271;29;20861;-87
2023/06/02 11:51:19;;;;;;;10.30;3.67;;;22.00;1.00;;;;;;4999395;28;20470;-81
2023/06/02 11:54:07;;;;;;;9.50;3.73;;;22.20;1.00;;;;;;5003447;28;20413;-81
2023/06/02 11:57:07;;;;;;;6.63;2.90;;;22.40;1.00;;;;;;5014064;28;21007;-80
2023/06/02 11:59:33;;;;;;;9.40;3.30;;;22.60;1.00;;;;;;5006736;28;20485;-81
2023/06/02 12:02:03;;;;;;;11.70;3.70;;;22.70;1.00;;;;;;4988273;28;20449;-81
2023/06/02 12:04:49;;;;;;;8.80;3.80;;;22.60;1.00;;;;;;5015107;28;20178;-81
2023/06/02 12:07:27;;;;;;;6.03;3.40;;;22.60;1.00;;;;;;4998571;28;20420;-81
2023/06/02 12:09:53;;;;;;;7.63;3.30;;;22.50;1.00;;;;;;4991257;28;20457;-81
2023/06/02 12:12:20;;;;;;;11.73;3.40;;;22.40;1.00;;;;;;5014680;28;20900;-81
2023/06/02 12:14:50;;;;;;;9.43;3.80;;;22.50;1.00;;;;;;5014920;28;20325;-82
2023/06/02 12:17:19;;;;;;;14.60;3.27;;;22.60;1.00;;;;;;5014120;28;20448;-81
2023/06/02 12:19:56;;;;;;;10.10;3.97;;;22.60;1.00;;;;;;5003989;28;20491;-82
2023/06/02 12:22:31;;;;;;;12.47;3.67;;;22.70;1.00;;;;;;5015013;28;20940;-79
2023/06/02 12:25:20;;;;;;;13.40;3.53;;;22.80;1.00;;;;;;5013743;28;20436;-81
2023/06/02 12:28:22;;;;;;;13.00;2.77;;;22.80;1.00;;;;;;4992604;28;20533;-80
2023/06/02 12:31:43;;;;;;;8.73;3.57;;;22.90;1.00;;;;;;4922311;29;20447;-80
2023/06/02 12:34:20;;;;;;;10.30;3.37;;;23.00;1.00;;;;;;4934087;29;20949;-79
2023/06/02 12:37:19;;;;;;;9.23;3.43;;;23.10;1.00;;;;;;4920366;29;20428;-81
2023/06/02 12:40:20;;;;;;;12.50;3.20;;;23.10;1.00;;;;;;4935252;29;20436;-81
2023/06/02 12:42:49;;;;;;;10.30;3.60;;;23.20;1.00;;;;;;4917274;29;20474;-81
2023/06/02 12:45:26;;;;;;;9.43;3.90;;;23.40;1.00;;;;;;4918565;29;20557;-81
2023/06/02 12:47:56;;;;;;;12.97;3.60;;;23.50;1.00;;;;;;4935105;29;20521;-81
2023/06/02 12:53:43;;;;;;;8.30;3.50;;;23.80;1.00;;;;;;4930544;29;20450;-78
2023/06/02 12:56:20;;;;;;;6.40;3.43;;;23.70;1.00;;;;;;4933918;29;20438;-77
2023/06/02 12:58:49;;;;;;;11.70;3.60;;;23.80;1.00;;;;;;4932126;29;20203;-77
2023/06/02 13:01:21;;;;;;;10.30;3.60;;;23.90;1.00;;;;;;4918393;29;20430;-78
2023/06/02 13:03:50;;;;;;;8.77;4.13;;;24.00;1.00;;;;;;4938321;28;20451;-77
2023/06/02 13:06:20;;;;;;;7.13;3.10;;;24.00;1.00;;;;;;5013120;28;20425;-77
2023/06/02 13:22:14;;;;;;;14.80;3.70;;;24.20;1.00;;;;;;5010256;28;20406;-78
2023/06/02 13:24:43;;;;;;;10.07;3.17;;;24.30;1.00;;;;;;5013746;28;20432;-78
2023/06/02 13:27:14;;;;;;;17.33;3.70;;;24.30;1.00;;;;;;5004785;28;20430;-78
2023/06/02 13:30:01;;;;;;;10.50;3.33;;;24.30;1.00;;;;;;5009733;28;20491;-77
2023/06/02 13:32:27;;;;;;;10.60;3.33;;;24.40;1.00;;;;;;5011732;28;20529;-78
2023/06/02 13:34:57;;;;;;;3.70;3.00;;;24.40;1.00;;;;;;5014000;28;20518;-78
2023/06/02 13:41:07;;;;;;;14.70;3.30;;;24.60;1.00;;;;;;5014393;28;20426;-88
2023/06/02 13:44:13;;;;;;;11.13;3.60;;;24.80;1.00;;;;;;4997391;28;20502;-88
2023/06/02 13:46:44;;;;;;;6.20;3.10;;;24.80;1.00;;;;;;4997036;28;20436;-86
2023/06/02 13:49:25;;;;;;;10.70;3.77;;;24.70;1.00;;;;;;4997315;28;20485;-87
2023/06/02 13:52:01;;;;;;;15.23;3.17;;;24.80;1.00;;;;;;4997430;28;20402;-78
2023/06/02 13:54:31;;;;;;;10.13;3.30;;;24.90;1.00;;;;;;5013572;28;20421;-78
2023/06/02 13:57:08;;;;;;;13.90;3.47;;;24.90;1.00;;;;;;4987919;28;20440;-77
2023/06/02 13:59:50;;;;;;;10.13;3.50;;;24.80;1.00;;;;;;5011457;28;20422;-78
2023/06/02 14:02:37;;;;;;;45.50;4.33;;;24.90;1.00;;;;;;5013058;28;20421;-77
2023/06/02 14:05:08;;;;;;;10.90;2.93;;;25.10;1.00;;;;;;5013473;28;20385;-78
2023/06/02 14:14:17;;;;;;;7.13;3.73;;;25.10;1.00;;;;;;5005410;28;20504;-88
2023/06/02 14:17:31;;;;;;;7.70;3.10;;;25.20;1.00;;;;;;4996637;28;20433;-89
2023/06/02 14:23:31;;;;;;;9.80;3.27;;;25.40;1.00;;;;;;5014325;28;22292;-88
2023/06/02 14:29:55;;;;;;;6.33;2.97;;;25.60;1.00;;;;;;5011949;28;20469;-88
2023/06/02 14:35:55;;;;;;;10.40;3.00;;;25.80;1.00;;;;;;5008021;28;20842;-89
2023/06/02 14:38:38;;;;;;;6.93;2.53;;;25.90;1.00;;;;;;4980614;28;20477;-79
2023/06/02 14:41:08;;;;;;;12.07;3.13;;;26.00;1.00;;;;;;4983783;28;20847;-78
2023/06/02 14:43:38;;;;;;;13.90;3.00;;;25.90;1.00;;;;;;5011604;28;20489;-78
2023/06/02 14:49:32;;;;;;;18.70;2.93;;;26.10;1.00;;;;;;5013540;28;20463;-78
2023/06/02 14:52:02;;;;;;;6.50;2.67;;;26.30;1.00;;;;;;4984279;28;20420;-81
2023/06/02 14:54:28;;;;;;;8.10;3.00;;;26.40;1.00;;;;;;5012901;28;20496;-79
2023/06/02 14:56:53;;;;;;;12.03;3.10;;;26.50;1.00;;;;;;5011190;28;20434;-81
2023/06/02 14:59:20;;;;;;;8.10;3.10;;;26.50;1.00;;;;;;5008674;28;20184;-80
2023/06/02 15:01:50;;;;;;;4.67;2.73;;;26.50;1.00;;;;;;5014125;28;20325;-80
2023/06/02 15:07:38;;;;;;;10.40;2.80;;;27.00;1.00;;;;;;5013838;28;20819;-81
2023/06/02 15:13:27;;;;;;;20.33;2.90;;;30.00;1.00;;;;;;5003262;28;20524;-86
2023/06/02 15:15:52;;;;;;;5.23;2.77;;;32.40;1.00;;;;;;5016842;28;20424;-86
2023/06/02 15:18:18;;;;;;;4.47;2.40;;;33.80;1.00;;;;;;4998546;28;20428;-83
2023/06/02 15:21:09;;;;;;;7.53;2.63;;;35.20;1.00;;;;;;5015439;28;20264;-85
2023/06/02 15:23:40;;;;;;;6.93;2.30;;;35.70;1.00;;;;;;4997372;28;20245;-86
2023/06/02 15:32:47;;;;;;;9.30;2.10;;;39.90;1.00;;;;;;5013757;28;20435;-90
2023/06/02 15:35:39;;;;;;;6.10;2.03;;;40.60;1.00;;;;;;5002711;28;20432;-89
2023/06/02 15:38:22;;;;;;;7.47;2.40;;;41.00;1.00;;;;;;5008584;28;20272;-83
2023/06/02 15:41:21;;;;;;;4.10;2.40;;;41.10;1.00;;;;;;5000861;28;20503;-83
2023/06/02 15:43:52;;;;;;;7.80;2.80;;;41.70;1.00;;;;;;4995389;28;20860;-83
2023/06/02 15:46:18;;;;;;;4.13;2.43;;;41.80;1.00;;;;;;5005786;28;20428;-84
2023/06/02 15:48:58;;;;;;;9.00;2.57;;;41.40;1.00;;;;;;5011451;28;20459;-82
2023/06/02 15:51:40;;;;;;;5.63;2.30;;;42.00;1.00;;;;;;5015409;28;20641;-82
2023/06/02 15:54:39;;;;;;;5.83;2.30;;;42.80;1.00;;;;;;4998156;28;20416;-88
2023/06/02 15:57:27;;;;;;;4.27;1.80;;;42.50;1.00;;;;;;5010049;28;20519;-88
2023/06/02 16:00:05;;;;;;;4.20;2.37;;;42.80;1.00;;;;;;4992547;28;20525;-86
2023/06/02 16:03:15;;;;;;;2.00;1.60;;;42.80;1.00;;;;;;5013562;28;20435;-86
2023/06/02 16:06:10;;;;;;;344.47;309.60;;;42.60;1.00;;;;;;4995101;28;20440;-86
2023/06/02 16:08:36;;;;;;;688.27;606.37;;;42.60;1.00;;;;;;5004917;28;20418;-82
2023/06/02 16:11:04;;;;;;;12.77;3.53;;;43.10;1.00;;;;;;5015033;28;20432;-82
2023/06/02 16:13:30;;;;;;;566.17;504.00;;;43.10;1.00;;;;;;5011409;28;20428;-85
2023/06/02 16:16:10;;;;;;;22.40;12.57;;;43.00;1.00;;;;;;5014858;28;20454;-83
2023/06/02 16:18:40;;;;;;;3.90;2.00;;;43.30;1.00;;;;;;5014849;28;20180;-82
2023/06/02 16:21:16;;;;;;;2.60;2.10;;;42.70;1.00;;;;;;4997028;28;20829;-82
2023/06/02 16:24:33;;;;;;;10.77;2.50;;;42.30;1.00;;;;;;4997487;28;20937;-84
2023/06/02 16:27:10;;;;;;;9.07;2.30;;;42.20;1.00;;;;;;5015090;28;20409;-84